New Hartford, NY (13413)

1:45 AM EDT on April 28, 2015 (GMT -0400)
South Utica NY | | Change Station
CLOSE
Current Station
Personal Weather Station
Location: Utica, NY
Elevation: 633 ft
Nearby Weather Stations

Elev 633 ft 43.08 °N, 75.26 °W | Updated 8 minutes ago

Overcast
Overcast
43.6 °F
Feels Like 44 °F
N
1.0
Wind Variable Wind from South
Gusts 3.0 mph

Today
High -- | Low -- °F
--% Chance of Precip.
Yesterday
High -- | Low -- °F
Precip. -- in
5:59 AM 7:58 PM
Waxing Gibbous, 71% visible
Pressure 29.87 in
Visibility 10.0 miles
Clouds Overcast 8000 ft
Windchill 44 °F
Dew Point 40 °F
Humidity 87%
Rainfall 0.00 in
Snow Depth Not available.
UV 0 out of 12
Pollen 6.90 out of 12
Air Quality Not available.
Flu Activity Widespread
METAR KRME 280453Z AUTO 30004KT 10SM OVC080 04/03 A2986 RMK AO2 SLP113 T00440033 401110033

More Conditions Fewer Conditions

Pressure 29.87 in
Visibility 10.0 miles
Clouds Overcast 8000 ft
Windchill 44 °F
Dew Point 40 °F
Humidity 87%
Rainfall 0.00 in
Snow Depth Not available.
UV 0 out of 12
Pollen 6.90 out of 12
Air Quality Not available.
Flu Activity Widespread
METAR KRME 280453Z AUTO 30004KT 10SM OVC080 04/03 A2986 RMK AO2 SLP113 T00440033 401110033

More Conditions Fewer Conditions

10-Day Weather Forecast

Almanac

Astronomy

Apr. 28, 2015 Rise Set
Actual Time
Civil Twilight
Nautical Twilight
Astronomical Twilight
Moon
Length of Visible Light
Length of Day
Tomorrow will be .
, % of the Moon is Illuminated

Today's Extremes

State Highs State Lows

Community

WunderPhotos

Upload Photos

1,817,586 photos uploaded!

WunderBlogs® & News

Nearby

Air Quality

  Air Quality AQ Index Pollutant
Not available.

Snow Depth

Station Depth Elevation

Earthquake Activity

City Distance Mag. Time & Date
Minimum magnitude displayed is 2.5.

Coastal Water Temperatures

Place Temperature

Stations

Nearby Weather Stations

Station Location Temp. Windchill Dew Point Humidity Wind Precip. Elev Updated Type